Last 7 Days

Abernathy 3 (AB3)

Hourly Data | America/Los_Angeles
as of 10/22/18 12:04 PM PDT
Date Time Temp (°F) RH (%) Dew Pt (°F) Wind Spd ( mph) Wind Dir (°) Wind Gust ( mph) Latest Rain (In) Daily Rain (In) Min Temp (°F) Max Temp (°F) Day
10/22/18 1200 64.0 59 49.2 10.5 SW | 228 14.8 0.00 0.00 39.6 65.2 10/22/18
10/22/18 1100 59.8 67 49.0 9.8 SW | 226 14.2 0.00 0.00 39.6 61.3 10/22/18
10/22/18 1000 56.9 74 48.8 6.4 SW | 231 10.1 0.00 0.00 39.6 58.6 10/22/18
10/22/18 0900 47.5 88 44.1 0.7 NNW | 345 2.7 0.00 0.00 39.6 57.1 10/22/18
10/22/18 0800 40.5 92 38.4 0.7 N | 352 3.1 0.00 0.00 39.6 57.1 10/22/18
10/22/18 0700 46.2 93 44.2 1.9 W | 278 7.1 0.00 0.00 40.4 57.1 10/22/18
10/22/18 0600 41.3 92 39.2 0.9 N | 351 3.1 0.00 0.00 40.4 57.1 10/22/18
10/22/18 0500 44.1 90 41.3 0.7 NNW | 336 3.4 0.00 0.00 42.5 57.1 10/22/18
10/22/18 0400 51.4 81 45.9 1.8 WNW | 294 6.1 0.00 0.00 47.5 57.1 10/22/18
10/22/18 0300 55.4 75 47.7 5.3 WSW | 258 11.1 0.00 0.00 50.2 57.1 10/22/18
10/22/18 0200 54.5 76 47.1 4.3 W | 272 11.8 0.00 0.00 50.2 57.1 10/22/18
10/22/18 0100 53.3 78 46.6 4.3 W | 263 10.8 0.00 0.00 38.0 81.3 10/21/18
10/22/18 0000 55.2 73 46.4 3.3 WNW | 288 9.8 0.00 0.00 38.0 81.3 10/21/18
10/21/18 2300 59.4 66 48.0 7.2 WSW | 240 11.5 0.00 0.00 38.0 81.3 10/21/18
10/21/18 2200 59.6 66 48.4 6.2 SW | 227 10.5 0.00 0.00 38.0 81.3 10/21/18
10/21/18 2100 60.5 66 49.0 6.4 SW | 220 12.5 0.00 0.00 38.0 81.3 10/21/18
10/21/18 2000 62.8 63 50.1 8.5 WSW | 238 12.5 0.00 0.00 38.0 81.3 10/21/18
10/21/18 1900 65.8 59 50.9 9.0 WSW | 239 13.2 0.00 0.00 38.0 81.3 10/21/18
10/21/18 1800 73.2 44 50.1 9.3 WSW | 244 14.5 0.00 0.00 38.0 81.3 10/21/18
10/21/18 1700 78.9 32 46.6 7.9 SW | 234 13.5 0.00 0.00 38.0 81.3 10/21/18
10/21/18 1600 78.9 31 46.1 7.4 WSW | 238 11.8 0.00 0.00 38.0 81.2 10/21/18
10/21/18 1500 75.6 37 47.4 8.4 SW | 216 11.8 0.00 0.00 38.0 77.6 10/21/18
10/21/18 1400 70.9 43 47.4 7.6 SSW | 212 10.5 0.00 0.00 38.0 73.2 10/21/18
10/21/18 1300 67.1 49 47.4 7.8 SSW | 210 10.8 0.00 0.00 38.0 68.9 10/21/18
10/18/18 0500 41.5 82 36.3 1.4 NNE | 12 3.4 0.00 0.00 40.8 45.0 10/18/18
10/18/18 0400 42.1 82 36.9 1.4 N | 1 3.1 0.00 0.00 41.7 45.0 10/18/18
10/18/18 0300 42.2 79 36.2 1.1 N | 4 2.7 0.00 0.00 41.7 45.0 10/18/18
10/18/18 0200 44.1 74 36.2 1.1 N | 355 3.1 0.00 0.00 42.5 45.0 10/18/18
10/18/18 0100 44.9 74 37.1 1.2 N | 353 2.7 0.00 0.00 36.2 83.0 10/17/18
10/18/18 0000 46.9 70 37.5 1.0 NNE | 18 2.7 0.00 0.00 36.2 83.0 10/17/18
10/17/18 2300 49.4 64 37.8 0.9 NNW | 337 3.1 0.00 0.00 36.2 83.0 10/17/18
10/17/18 2200 50.8 63 38.6 1.2 NW | 325 2.7 0.00 0.00 36.2 83.0 10/17/18
10/17/18 2100 57.9 60 43.9 1.7 NW | 316 4.4 0.00 0.00 36.2 83.0 10/17/18
10/17/18 2000 64.3 48 44.1 3.2 WSW | 249 7.1 0.00 0.00 36.2 83.0 10/17/18
10/17/18 1900 70.0 32 38.9 4.5 WSW | 238 8.8 0.00 0.00 36.2 83.0 10/17/18
10/17/18 1800 77.0 27 40.2 5.4 SW | 234 9.5 0.00 0.00 36.2 83.0 10/17/18
10/17/18 1700 80.2 22 37.4 5.5 SW | 217 10.8 0.00 0.00 36.2 83.0 10/17/18
10/17/18 1600 81.7 19 35.3 3.2 SSW | 193 6.8 0.00 0.00 36.2 83.0 10/17/18
10/17/18 1500 80.3 21 36.3 3.2 SSE | 159 8.4 0.00 0.00 36.2 81.6 10/17/18
10/17/18 1400 77.8 24 38.4 4.3 S | 170 9.1 0.00 0.00 36.2 80.2 10/17/18
10/17/18 1300 74.6 29 40.4 4.1 SE | 145 9.1 0.00 0.00 36.2 76.7 10/17/18
10/17/18 1200 70.4 36 42.3 2.6 SSE | 161 7.4 0.00 0.00 36.2 72.8 10/17/18
10/17/18 1100 67.3 42 43.1 2.1 S | 179 5.4 0.00 0.00 36.2 68.2 10/17/18
10/17/18 1000 60.5 47 40.0 1.2 SSW | 201 3.4 0.00 0.00 36.2 66.7 10/17/18
10/17/18 0900 48.6 58 34.3 1.0 NW | 304 3.8 0.00 0.00 36.2 55.5 10/17/18
10/17/18 0800 37.4 77 30.9 0.6 NNW | 328 3.1 0.00 0.00 36.2 45.9 10/17/18
10/17/18 0700 38.7 74 31.2 0.7 NNW | 348 2.4 0.00 0.00 37.4 45.9 10/17/18
10/17/18 0600 40.5 72 32.2 1.0 N | 359 3.1 0.00 0.00 39.6 45.9 10/17/18
10/17/18 0500 41.2 72 32.8 1.0 NW | 319 3.4 0.00 0.00 40.7 45.9 10/17/18
10/17/18 0400 43.0 78 36.5 1.5 NNE | 15 3.4 0.00 0.00 41.3 45.9 10/17/18
10/17/18 0300 43.0 67 32.8 1.5 NNE | 30 4.1 0.00 0.00 42.3 45.9 10/17/18
10/17/18 0200 45.2 61 32.7 1.6 NNE | 19 3.8 0.00 0.00 44.4 45.9 10/17/18
10/17/18 0100 46.0 59 32.6 1.6 N | 8 3.8 0.00 0.00 37.6 85.0 10/16/18
10/17/18 0000 48.0 54 32.2 1.2 NW | 324 3.1 0.00 0.00 37.6 85.0 10/16/18
10/16/18 2300 50.1 48 31.4 0.9 W | 281 4.1 0.00 0.00 37.6 85.0 10/16/18
10/16/18 2200 53.0 46 32.5 1.9 NNW | 343 4.4 0.00 0.00 37.6 85.0 10/16/18
10/16/18 2100 59.6 36 32.2 0.8 NW | 306 3.1 0.00 0.00 37.6 85.0 10/16/18
10/16/18 2000 66.7 24 28.7 2.7 WSW | 251 5.4 0.00 0.00 37.6 85.0 10/16/18
10/16/18 1900 71.7 25 33.8 4.6 W | 260 12.1 0.00 0.00 37.6 85.0 10/16/18
10/16/18 1800 80.2 18 32.2 7.5 WSW | 254 12.1 0.00 0.00 37.6 85.0 10/16/18
10/16/18 1700 84.2 14 29.4 6.3 WSW | 251 10.8 0.00 0.00 37.6 85.0 10/16/18
10/16/18 1600 84.3 14 29.1 4.7 SW | 226 8.4 0.00 0.00 37.6 85.0 10/16/18
10/16/18 1500 83.3 15 30.2 3.9 SW | 224 7.8 0.00 0.00 37.6 85.0 10/16/18
10/16/18 1400 80.7 19 34.5 5.1 SSW | 212 10.8 0.00 0.00 37.6 82.1 10/16/18
10/16/18 1300 77.8 21 35.0 5.0 SSW | 209 10.8 0.00 0.00 37.6 79.1 10/16/18
10/16/18 1200 74.8 25 36.4 4.3 S | 172 8.4 0.00 0.00 37.6 76.6 10/16/18
10/16/18 1100 72.4 26 35.3 1.8 SE | 141 6.1 0.00 0.00 37.6 74.9 10/16/18
10/16/18 1000 65.4 29 32.6 1.1 ESE | 106 3.8 0.00 0.00 37.6 69.8 10/16/18
10/16/18 0900 51.0 44 29.7 0.5 NNW | 332 2.1 0.00 0.00 37.6 58.4 10/16/18
10/16/18 0800 39.1 60 26.4 0.7 NNE | 21 4.1 0.00 0.00 37.6 51.4 10/16/18
10/16/18 0700 38.8 60 26.0 1.3 NNE | 12 4.1 0.00 0.00 37.6 51.4 10/16/18
10/16/18 0600 40.0 58 26.5 1.4 N | 10 3.4 0.00 0.00 38.9 51.4 10/16/18
10/16/18 0500 40.5 56 26.2 1.1 NNW | 329 3.8 0.00 0.00 39.9 51.4 10/16/18
10/16/18 0400 42.8 54 27.4 1.9 N | 353 3.8 0.00 0.00 42.0 51.4 10/16/18
10/16/18 0300 46.5 44 26.0 0.9 WSW | 250 3.1 0.00 0.00 44.8 51.4 10/16/18
10/16/18 0200 50.2 39 26.2 2.8 NW | 321 6.1 0.00 0.00 48.3 51.4 10/16/18
10/16/18 0100 48.2 43 26.9 2.0 NW | 320 4.1 0.00 0.00 46.6 85.5 10/15/18
10/16/18 0000 48.1 43 26.5 1.8 NW | 312 4.1 0.00 0.00 46.6 85.5 10/15/18
10/15/18 2300 47.6 41 24.8 1.4 W | 269 4.8 0.00 0.00 46.6 85.5 10/15/18
10/15/18 2200 50.2 38 25.7 1.5 NW | 312 4.1 0.00 0.00 48.9 85.5 10/15/18
10/15/18 2100 55.6 31 25.4 1.6 NW | 318 4.1 0.00 0.00 52.6 85.5 10/15/18
10/15/18 2000 61.1 26 26.0 2.0 W | 271 4.1 0.00 0.00 56.4 85.5 10/15/18
10/15/18 1900 72.0 15 21.3 2.5 WSW | 244 6.8 0.00 0.00 56.4 85.5 10/15/18
10/15/18 1800 81.2 9 17.5 5.6 SW | 231 8.8 0.00 0.00 56.4 85.5 10/15/18
10/15/18 1700 84.6 7 14.9 3.8 SW | 220 8.8 0.00 0.00 56.4 85.5 10/15/18
10/15/18 1600 84.6 8 15.8 4.6 ESE | 117 9.1 0.00 0.00 56.4 85.5 10/15/18
10/15/18 1500 83.8 9 18.2 5.6 E | 79 10.8 0.00 0.00 56.4 84.9 10/15/18
10/15/18 1400 82.7 8 14.2 5.1 SSE | 156 14.8 0.00 0.00 56.4 83.8 10/15/18
10/15/18 1300 80.7 7 11.6 3.1 SSW | 192 7.8 0.00 0.00 56.4 82.1 10/15/18
Tip: Bookmark this page for easy future reference